Airfield :
LOGIN :

Register | Disclaimer

   EN    FR    IT 

 










Legend :    VFR   Marginal VFR   IFR   Intensive IFR   Very Intensive IFR
Visi :
Ceiling :
>= 8 km
>= 3000ft
5 to 8 km
1000 to 3000 ft
1500m to 5 km
500 to 1000 ft
800 to 1500m
200 to 500 ft
< 800m
< 200 ft
Symbols :   Thunderstorms  Fog  Heavy snow  Heavy precipitations  Wind > 20 kt
SIGMETs :     Misc.  Thunderstorms  Icing  Turbulence  Mountain Waves  Volcanic Ashes







- Airport Elevation : 348 ft
- IATA code : TSR


LRTR - Timisoara

CURRENT METAR :
  • 172230Z 31007KT 5000 BR NSC 01/M00 Q1019 R11/19//95 NOSIG

EXPIRED METARs :
  • 172200Z 31006KT 6000 NSC 01/M00 Q1019 R11/19//95 BECMG 5000 BR
  • 172130Z 32006KT 7000 NSC 01/00 Q1019 R11/19//95 NOSIG
  • 172100Z 34005KT 8000 NSC 02/00 Q1018 R11/19//95 NOSIG
  • 172030Z 33007KT 8000 NSC 02/00 Q1018 R11/19//95 NOSIG
  • 172000Z 32007KT 8000 NSC 02/01 Q1018 R11/19//95 NOSIG

TAF AMD TAF LRTR
Valid from the 17 at 20:00 until the 18 at 18:00 UTC


172007Z 1720/1818 34008KT CAVOK
BECMG 1721/1723 5000 BR
TEMPO 1800/1805 1500 BR BKN010
BECMG 1807/1809 CAVOK
No reported NOTAMs for that airfield.



MET'MAP, your aeronautical weather chart ! - Copyright ORBIFLY December 2007 - Disclaimer

ORBIFLY MET'MAP TEAM :

Programming & Development : Alexandra Zaïnal
Concept & Development : Baudouin d'Aumeries
Co-Development & Prog : Marc-Olivier Méhu
Technical & hardware support : Manuel Goepfert

Contact : metmap@orbifly.com




SOURCES & CREDITS :

   NOAA